sensor_id;sensor_type;location;lat;lon;timestamp;P1;durP1;ratioP1;P2;durP2;ratioP2
38182;SDS011;23991;52.430;10.586;2023-04-03T00:00:56;4.43;;;1.83;;
38182;SDS011;23991;52.430;10.586;2023-04-03T00:03:25;4.88;;;1.50;;
38182;SDS011;23991;52.430;10.586;2023-04-03T00:05:51;8.13;;;2.05;;
38182;SDS011;23991;52.430;10.586;2023-04-03T00:08:16;3.60;;;1.55;;
38182;SDS011;23991;52.430;10.586;2023-04-03T00:10:42;4.78;;;1.48;;
38182;SDS011;23991;52.430;10.586;2023-04-03T00:13:08;8.48;;;1.77;;
38182;SDS011;23991;52.430;10.586;2023-04-03T00:15:35;4.30;;;1.50;;
38182;SDS011;23991;52.430;10.586;2023-04-03T00:18:01;4.10;;;1.52;;
38182;SDS011;23991;52.430;10.586;2023-04-03T00:20:27;6.15;;;1.60;;
38182;SDS011;23991;52.430;10.586;2023-04-03T00:22:53;5.78;;;1.67;;
38182;SDS011;23991;52.430;10.586;2023-04-03T00:25:19;4.95;;;1.50;;
38182;SDS011;23991;52.430;10.586;2023-04-03T00:27:45;6.25;;;1.80;;
38182;SDS011;23991;52.430;10.586;2023-04-03T00:30:11;5.97;;;1.67;;
38182;SDS011;23991;52.430;10.586;2023-04-03T00:32:39;4.13;;;1.60;;
38182;SDS011;23991;52.430;10.586;2023-04-03T00:35:05;5.65;;;1.60;;
38182;SDS011;23991;52.430;10.586;2023-04-03T00:37:32;7.03;;;1.40;;
38182;SDS011;23991;52.430;10.586;2023-04-03T00:39:58;2.35;;;1.40;;
38182;SDS011;23991;52.430;10.586;2023-04-03T00:42:23;11.13;;;1.77;;
38182;SDS011;23991;52.430;10.586;2023-04-03T00:47:21;6.38;;;1.85;;
38182;SDS011;23991;52.430;10.586;2023-04-03T00:49:47;3.92;;;1.30;;
38182;SDS011;23991;52.430;10.586;2023-04-03T00:52:16;5.57;;;1.55;;
38182;SDS011;23991;52.430;10.586;2023-04-03T00:54:44;5.22;;;1.67;;
38182;SDS011;23991;52.430;10.586;2023-04-03T00:57:12;4.93;;;1.70;;
38182;SDS011;23991;52.430;10.586;2023-04-03T00:59:41;4.30;;;1.50;;
38182;SDS011;23991;52.430;10.586;2023-04-03T01:02:09;7.95;;;1.40;;
38182;SDS011;23991;52.430;10.586;2023-04-03T01:04:36;4.20;;;1.70;;
38182;SDS011;23991;52.430;10.586;2023-04-03T01:07:08;7.50;;;1.50;;
38182;SDS011;23991;52.430;10.586;2023-04-03T01:09:36;7.88;;;2.00;;
38182;SDS011;23991;52.430;10.586;2023-04-03T01:12:14;10.27;;;1.73;;
38182;SDS011;23991;52.430;10.586;2023-04-03T01:14:41;5.80;;;1.95;;
38182;SDS011;23991;52.430;10.586;2023-04-03T01:19:53;6.45;;;1.55;;
38182;SDS011;23991;52.430;10.586;2023-04-03T01:22:42;3.85;;;1.35;;
38182;SDS011;23991;52.430;10.586;2023-04-03T01:25:30;7.07;;;1.52;;
38182;SDS011;23991;52.430;10.586;2023-04-03T01:27:56;7.32;;;1.58;;
38182;SDS011;23991;52.430;10.586;2023-04-03T01:30:23;7.85;;;1.75;;
38182;SDS011;23991;52.430;10.586;2023-04-03T01:32:54;6.15;;;1.83;;
38182;SDS011;23991;52.430;10.586;2023-04-03T01:35:20;4.75;;;1.20;;
38182;SDS011;23991;52.430;10.586;2023-04-03T01:37:46;4.65;;;1.45;;
38182;SDS011;23991;52.430;10.586;2023-04-03T01:40:11;6.10;;;1.63;;
38182;SDS011;23991;52.430;10.586;2023-04-03T01:42:37;7.43;;;1.70;;
38182;SDS011;23991;52.430;10.586;2023-04-03T01:45:03;7.13;;;1.85;;
38182;SDS011;23991;52.430;10.586;2023-04-03T01:47:28;6.05;;;1.65;;
38182;SDS011;23991;52.430;10.586;2023-04-03T01:49:54;5.93;;;1.60;;
38182;SDS011;23991;52.430;10.586;2023-04-03T01:52:20;5.30;;;1.70;;
38182;SDS011;23991;52.430;10.586;2023-04-03T01:54:45;6.50;;;2.00;;
38182;SDS011;23991;52.430;10.586;2023-04-03T01:57:11;4.70;;;1.80;;
38182;SDS011;23991;52.430;10.586;2023-04-03T01:59:38;2.90;;;1.45;;
38182;SDS011;23991;52.430;10.586;2023-04-03T02:02:04;6.07;;;1.90;;
38182;SDS011;23991;52.430;10.586;2023-04-03T02:04:29;5.85;;;2.22;;
38182;SDS011;23991;52.430;10.586;2023-04-03T02:06:55;6.90;;;2.30;;
38182;SDS011;23991;52.430;10.586;2023-04-03T02:09:20;6.05;;;1.80;;
38182;SDS011;23991;52.430;10.586;2023-04-03T02:11:46;7.47;;;2.28;;
38182;SDS011;23991;52.430;10.586;2023-04-03T02:14:11;6.07;;;1.98;;
38182;SDS011;23991;52.430;10.586;2023-04-03T02:16:37;7.32;;;2.10;;
38182;SDS011;23991;52.430;10.586;2023-04-03T02:19:03;7.05;;;2.00;;
38182;SDS011;23991;52.430;10.586;2023-04-03T02:21:28;4.72;;;1.70;;
38182;SDS011;23991;52.430;10.586;2023-04-03T02:23:54;5.97;;;1.90;;
38182;SDS011;23991;52.430;10.586;2023-04-03T02:26:19;7.88;;;2.00;;
38182;SDS011;23991;52.430;10.586;2023-04-03T02:28:46;4.20;;;1.85;;
38182;SDS011;23991;52.430;10.586;2023-04-03T02:31:12;7.97;;;2.30;;
38182;SDS011;23991;52.430;10.586;2023-04-03T02:33:37;6.75;;;2.40;;
38182;SDS011;23991;52.430;10.586;2023-04-03T02:36:04;5.68;;;2.08;;
38182;SDS011;23991;52.430;10.586;2023-04-03T02:38:30;10.10;;;2.05;;
38182;SDS011;23991;52.430;10.586;2023-04-03T02:41:00;7.13;;;2.40;;
38182;SDS011;23991;52.430;10.586;2023-04-03T02:43:26;6.75;;;1.98;;
38182;SDS011;23991;52.430;10.586;2023-04-03T02:45:52;4.40;;;2.55;;
38182;SDS011;23991;52.430;10.586;2023-04-03T02:48:17;8.98;;;2.22;;
38182;SDS011;23991;52.430;10.586;2023-04-03T02:50:43;5.22;;;1.77;;
38182;SDS011;23991;52.430;10.586;2023-04-03T02:53:08;4.60;;;1.70;;
38182;SDS011;23991;52.430;10.586;2023-04-03T02:55:34;5.15;;;1.90;;
38182;SDS011;23991;52.430;10.586;2023-04-03T02:57:59;12.18;;;2.08;;
38182;SDS011;23991;52.430;10.586;2023-04-03T03:00:25;6.80;;;2.17;;
38182;SDS011;23991;52.430;10.586;2023-04-03T03:02:50;8.75;;;2.20;;
38182;SDS011;23991;52.430;10.586;2023-04-03T03:05:16;6.93;;;2.15;;
38182;SDS011;23991;52.430;10.586;2023-04-03T03:07:42;4.22;;;1.95;;
38182;SDS011;23991;52.430;10.586;2023-04-03T03:10:07;5.88;;;2.03;;
38182;SDS011;23991;52.430;10.586;2023-04-03T03:12:33;6.90;;;2.30;;
38182;SDS011;23991;52.430;10.586;2023-04-03T03:14:59;6.90;;;2.05;;
38182;SDS011;23991;52.430;10.586;2023-04-03T03:17:24;8.98;;;2.00;;
38182;SDS011;23991;52.430;10.586;2023-04-03T03:19:50;8.38;;;2.00;;
38182;SDS011;23991;52.430;10.586;2023-04-03T03:22:16;6.03;;;2.13;;
38182;SDS011;23991;52.430;10.586;2023-04-03T03:24:41;3.70;;;1.80;;
38182;SDS011;23991;52.430;10.586;2023-04-03T03:27:07;8.43;;;1.90;;
38182;SDS011;23991;52.430;10.586;2023-04-03T03:29:32;5.43;;;1.70;;
38182;SDS011;23991;52.430;10.586;2023-04-03T03:31:58;6.22;;;1.77;;
38182;SDS011;23991;52.430;10.586;2023-04-03T03:34:23;5.70;;;2.17;;
38182;SDS011;23991;52.430;10.586;2023-04-03T03:36:49;6.93;;;2.05;;
38182;SDS011;23991;52.430;10.586;2023-04-03T03:39:15;6.45;;;2.10;;
38182;SDS011;23991;52.430;10.586;2023-04-03T03:41:40;4.95;;;1.92;;
38182;SDS011;23991;52.430;10.586;2023-04-03T03:44:06;5.53;;;1.95;;
38182;SDS011;23991;52.430;10.586;2023-04-03T03:46:31;7.32;;;2.13;;
38182;SDS011;23991;52.430;10.586;2023-04-03T03:48:57;4.45;;;2.00;;
38182;SDS011;23991;52.430;10.586;2023-04-03T03:51:22;12.07;;;3.17;;
38182;SDS011;23991;52.430;10.586;2023-04-03T03:53:48;5.72;;;2.08;;
38182;SDS011;23991;52.430;10.586;2023-04-03T03:56:13;7.70;;;2.20;;
38182;SDS011;23991;52.430;10.586;2023-04-03T03:58:39;6.95;;;2.22;;
38182;SDS011;23991;52.430;10.586;2023-04-03T04:01:05;8.32;;;2.20;;
38182;SDS011;23991;52.430;10.586;2023-04-03T04:03:31;6.72;;;2.10;;
38182;SDS011;23991;52.430;10.586;2023-04-03T04:05:57;8.18;;;2.25;;
38182;SDS011;23991;52.430;10.586;2023-04-03T04:08:23;11.27;;;2.60;;
38182;SDS011;23991;52.430;10.586;2023-04-03T04:10:48;11.35;;;3.17;;
38182;SDS011;23991;52.430;10.586;2023-04-03T04:13:14;6.35;;;3.00;;
38182;SDS011;23991;52.430;10.586;2023-04-03T04:15:40;9.95;;;2.85;;
38182;SDS011;23991;52.430;10.586;2023-04-03T04:18:05;7.07;;;2.30;;
38182;SDS011;23991;52.430;10.586;2023-04-03T04:20:31;10.45;;;2.60;;
38182;SDS011;23991;52.430;10.586;2023-04-03T04:22:56;9.35;;;2.72;;
38182;SDS011;23991;52.430;10.586;2023-04-03T04:25:22;7.25;;;2.85;;
38182;SDS011;23991;52.430;10.586;2023-04-03T04:27:47;10.60;;;2.65;;
38182;SDS011;23991;52.430;10.586;2023-04-03T04:30:13;6.40;;;2.15;;
38182;SDS011;23991;52.430;10.586;2023-04-03T04:32:39;5.25;;;2.10;;
38182;SDS011;23991;52.430;10.586;2023-04-03T04:35:06;6.55;;;2.15;;
38182;SDS011;23991;52.430;10.586;2023-04-03T04:37:32;4.15;;;2.00;;
38182;SDS011;23991;52.430;10.586;2023-04-03T04:39:58;7.55;;;2.60;;
38182;SDS011;23991;52.430;10.586;2023-04-03T04:42:23;7.70;;;2.17;;
38182;SDS011;23991;52.430;10.586;2023-04-03T04:44:51;4.20;;;2.17;;
38182;SDS011;23991;52.430;10.586;2023-04-03T04:47:17;13.02;;;2.10;;
38182;SDS011;23991;52.430;10.586;2023-04-03T04:49:42;5.85;;;2.25;;
38182;SDS011;23991;52.430;10.586;2023-04-03T04:52:08;8.20;;;2.05;;
38182;SDS011;23991;52.430;10.586;2023-04-03T04:54:33;5.20;;;2.20;;
38182;SDS011;23991;52.430;10.586;2023-04-03T04:56:59;6.97;;;2.25;;
38182;SDS011;23991;52.430;10.586;2023-04-03T04:59:25;7.82;;;2.10;;
38182;SDS011;23991;52.430;10.586;2023-04-03T05:01:50;4.78;;;1.77;;
38182;SDS011;23991;52.430;10.586;2023-04-03T05:04:16;10.68;;;1.92;;
38182;SDS011;23991;52.430;10.586;2023-04-03T05:06:41;5.70;;;2.10;;
38182;SDS011;23991;52.430;10.586;2023-04-03T05:09:07;6.93;;;2.78;;
38182;SDS011;23991;52.430;10.586;2023-04-03T05:11:33;5.45;;;1.77;;
38182;SDS011;23991;52.430;10.586;2023-04-03T05:13:59;8.05;;;2.15;;
38182;SDS011;23991;52.430;10.586;2023-04-03T05:16:25;6.97;;;2.40;;
38182;SDS011;23991;52.430;10.586;2023-04-03T05:18:51;5.15;;;1.70;;
38182;SDS011;23991;52.430;10.586;2023-04-03T05:21:16;3.67;;;1.65;;
38182;SDS011;23991;52.430;10.586;2023-04-03T05:23:43;4.15;;;1.40;;
38182;SDS011;23991;52.430;10.586;2023-04-03T05:26:12;6.43;;;2.92;;
38182;SDS011;23991;52.430;10.586;2023-04-03T05:28:37;5.85;;;2.10;;
38182;SDS011;23991;52.430;10.586;2023-04-03T05:31:03;10.30;;;2.45;;
38182;SDS011;23991;52.430;10.586;2023-04-03T05:33:28;6.55;;;2.00;;
38182;SDS011;23991;52.430;10.586;2023-04-03T05:35:54;4.43;;;1.90;;
38182;SDS011;23991;52.430;10.586;2023-04-03T05:38:20;8.77;;;2.10;;
38182;SDS011;23991;52.430;10.586;2023-04-03T05:40:45;7.32;;;3.70;;
38182;SDS011;23991;52.430;10.586;2023-04-03T05:43:11;8.35;;;2.20;;
38182;SDS011;23991;52.430;10.586;2023-04-03T05:45:37;6.55;;;2.30;;
38182;SDS011;23991;52.430;10.586;2023-04-03T05:48:02;8.18;;;2.00;;
38182;SDS011;23991;52.430;10.586;2023-04-03T05:50:28;9.35;;;2.50;;
38182;SDS011;23991;52.430;10.586;2023-04-03T05:52:55;9.05;;;2.30;;
38182;SDS011;23991;52.430;10.586;2023-04-03T05:55:23;6.63;;;1.83;;
38182;SDS011;23991;52.430;10.586;2023-04-03T05:57:48;5.10;;;2.20;;
38182;SDS011;23991;52.430;10.586;2023-04-03T06:00:15;2.95;;;1.30;;
38182;SDS011;23991;52.430;10.586;2023-04-03T06:02:41;5.93;;;1.90;;
38182;SDS011;23991;52.430;10.586;2023-04-03T06:05:07;5.50;;;1.90;;
38182;SDS011;23991;52.430;10.586;2023-04-03T06:07:33;7.35;;;1.80;;
38182;SDS011;23991;52.430;10.586;2023-04-03T06:09:59;9.88;;;2.45;;
38182;SDS011;23991;52.430;10.586;2023-04-03T06:12:26;5.50;;;2.22;;
38182;SDS011;23991;52.430;10.586;2023-04-03T06:14:54;9.90;;;2.33;;
38182;SDS011;23991;52.430;10.586;2023-04-03T06:17:20;7.90;;;2.53;;
38182;SDS011;23991;52.430;10.586;2023-04-03T06:19:58;7.00;;;2.47;;
38182;SDS011;23991;52.430;10.586;2023-04-03T06:22:27;4.93;;;2.47;;
38182;SDS011;23991;52.430;10.586;2023-04-03T06:24:55;7.40;;;2.00;;
38182;SDS011;23991;52.430;10.586;2023-04-03T06:27:22;7.78;;;2.28;;
38182;SDS011;23991;52.430;10.586;2023-04-03T06:29:50;7.88;;;2.10;;
38182;SDS011;23991;52.430;10.586;2023-04-03T06:32:16;10.52;;;2.67;;
38182;SDS011;23991;52.430;10.586;2023-04-03T06:34:41;6.25;;;2.60;;
38182;SDS011;23991;52.430;10.586;2023-04-03T06:37:12;7.28;;;3.03;;
38182;SDS011;23991;52.430;10.586;2023-04-03T06:39:44;7.30;;;2.50;;
38182;SDS011;23991;52.430;10.586;2023-04-03T06:42:10;10.20;;;3.30;;
38182;SDS011;23991;52.430;10.586;2023-04-03T06:44:36;5.80;;;2.50;;
38182;SDS011;23991;52.430;10.586;2023-04-03T06:47:01;6.68;;;2.42;;
38182;SDS011;23991;52.430;10.586;2023-04-03T06:49:27;7.38;;;2.88;;
38182;SDS011;23991;52.430;10.586;2023-04-03T06:51:53;8.25;;;3.13;;
38182;SDS011;23991;52.430;10.586;2023-04-03T06:54:19;8.65;;;2.92;;
38182;SDS011;23991;52.430;10.586;2023-04-03T06:56:45;14.73;;;2.63;;
38182;SDS011;23991;52.430;10.586;2023-04-03T06:59:11;8.23;;;2.63;;
38182;SDS011;23991;52.430;10.586;2023-04-03T07:01:38;7.53;;;2.42;;
38182;SDS011;23991;52.430;10.586;2023-04-03T07:04:04;8.20;;;2.65;;
38182;SDS011;23991;52.430;10.586;2023-04-03T07:06:30;6.38;;;2.33;;
38182;SDS011;23991;52.430;10.586;2023-04-03T07:08:58;4.38;;;2.20;;
38182;SDS011;23991;52.430;10.586;2023-04-03T07:11:24;7.60;;;2.40;;
38182;SDS011;23991;52.430;10.586;2023-04-03T07:13:50;5.68;;;1.92;;
38182;SDS011;23991;52.430;10.586;2023-04-03T07:16:16;5.70;;;2.17;;
38182;SDS011;23991;52.430;10.586;2023-04-03T07:18:42;5.57;;;2.22;;
38182;SDS011;23991;52.430;10.586;2023-04-03T07:21:07;6.95;;;1.90;;
38182;SDS011;23991;52.430;10.586;2023-04-03T07:23:46;5.20;;;1.77;;
38182;SDS011;23991;52.430;10.586;2023-04-03T07:26:12;3.08;;;1.48;;
38182;SDS011;23991;52.430;10.586;2023-04-03T07:28:40;5.53;;;1.83;;
38182;SDS011;23991;52.430;10.586;2023-04-03T07:31:12;5.50;;;2.03;;
38182;SDS011;23991;52.430;10.586;2023-04-03T07:33:39;4.10;;;1.50;;
38182;SDS011;23991;52.430;10.586;2023-04-03T07:36:37;5.35;;;1.60;;
38182;SDS011;23991;52.430;10.586;2023-04-03T07:39:06;5.40;;;1.60;;
38182;SDS011;23991;52.430;10.586;2023-04-03T07:41:33;3.33;;;1.50;;
38182;SDS011;23991;52.430;10.586;2023-04-03T07:43:58;5.43;;;1.60;;
38182;SDS011;23991;52.430;10.586;2023-04-03T07:46:24;6.00;;;1.70;;
38182;SDS011;23991;52.430;10.586;2023-04-03T07:52:13;4.35;;;1.52;;
38182;SDS011;23991;52.430;10.586;2023-04-03T07:54:40;5.85;;;1.60;;
38182;SDS011;23991;52.430;10.586;2023-04-03T07:57:06;4.68;;;1.30;;
38182;SDS011;23991;52.430;10.586;2023-04-03T07:59:32;5.32;;;1.58;;
38182;SDS011;23991;52.430;10.586;2023-04-03T08:01:59;4.60;;;1.35;;
38182;SDS011;23991;52.430;10.586;2023-04-03T08:04:40;4.10;;;1.50;;
38182;SDS011;23991;52.430;10.586;2023-04-03T08:07:06;4.97;;;1.75;;
38182;SDS011;23991;52.430;10.586;2023-04-03T08:09:32;4.40;;;1.27;;
38182;SDS011;23991;52.430;10.586;2023-04-03T08:11:58;6.05;;;1.10;;
38182;SDS011;23991;52.430;10.586;2023-04-03T08:14:26;4.68;;;1.27;;
38182;SDS011;23991;52.430;10.586;2023-04-03T08:16:55;4.00;;;1.30;;
38182;SDS011;23991;52.430;10.586;2023-04-03T08:19:23;4.65;;;1.30;;
38182;SDS011;23991;52.430;10.586;2023-04-03T08:21:54;5.20;;;1.45;;
38182;SDS011;23991;52.430;10.586;2023-04-03T08:24:23;3.17;;;1.20;;
38182;SDS011;23991;52.430;10.586;2023-04-03T08:26:54;3.38;;;1.42;;
38182;SDS011;23991;52.430;10.586;2023-04-03T08:29:20;3.00;;;1.20;;
38182;SDS011;23991;52.430;10.586;2023-04-03T08:31:46;3.97;;;1.40;;
38182;SDS011;23991;52.430;10.586;2023-04-03T08:34:12;4.57;;;1.20;;
38182;SDS011;23991;52.430;10.586;2023-04-03T08:36:39;3.47;;;1.20;;
38182;SDS011;23991;52.430;10.586;2023-04-03T08:39:07;3.40;;;1.50;;
38182;SDS011;23991;52.430;10.586;2023-04-03T08:41:41;3.65;;;1.20;;
38182;SDS011;23991;52.430;10.586;2023-04-03T08:47:04;5.00;;;1.50;;
38182;SDS011;23991;52.430;10.586;2023-04-03T08:52:56;2.13;;;1.17;;
38182;SDS011;23991;52.430;10.586;2023-04-03T08:55:27;4.50;;;1.48;;
38182;SDS011;23991;52.430;10.586;2023-04-03T08:58:02;3.22;;;1.17;;
38182;SDS011;23991;52.430;10.586;2023-04-03T09:00:37;5.75;;;1.58;;
38182;SDS011;23991;52.430;10.586;2023-04-03T09:03:11;6.03;;;1.27;;
38182;SDS011;23991;52.430;10.586;2023-04-03T09:24:02;3.60;;;1.23;;
38182;SDS011;23991;52.430;10.586;2023-04-03T09:29:14;2.13;;;1.05;;
38182;SDS011;23991;52.430;10.586;2023-04-03T09:31:44;3.40;;;1.30;;
38182;SDS011;23991;52.430;10.586;2023-04-03T09:34:22;3.88;;;1.60;;
38182;SDS011;23991;52.430;10.586;2023-04-03T09:36:52;3.53;;;1.15;;
38182;SDS011;23991;52.430;10.586;2023-04-03T09:39:27;4.22;;;1.30;;
38182;SDS011;23991;52.430;10.586;2023-04-03T09:54:23;6.00;;;1.20;;
38182;SDS011;23991;52.430;10.586;2023-04-03T09:56:52;4.45;;;1.02;;
38182;SDS011;23991;52.430;10.586;2023-04-03T09:59:20;3.78;;;1.20;;
38182;SDS011;23991;52.430;10.586;2023-04-03T10:01:57;3.72;;;1.30;;
38182;SDS011;23991;52.430;10.586;2023-04-03T10:04:43;3.53;;;1.70;;
38182;SDS011;23991;52.430;10.586;2023-04-03T10:07:30;3.95;;;1.40;;
38182;SDS011;23991;52.430;10.586;2023-04-03T10:25:30;2.88;;;1.10;;
38182;SDS011;23991;52.430;10.586;2023-04-03T10:30:55;3.20;;;1.35;;
38182;SDS011;23991;52.430;10.586;2023-04-03T10:36:17;2.00;;;0.90;;
38182;SDS011;23991;52.430;10.586;2023-04-03T10:42:00;2.13;;;1.20;;
38182;SDS011;23991;52.430;10.586;2023-04-03T11:02:06;3.40;;;1.25;;
38182;SDS011;23991;52.430;10.586;2023-04-03T11:04:44;3.75;;;1.60;;
38182;SDS011;23991;52.430;10.586;2023-04-03T11:07:17;2.55;;;1.15;;
38182;SDS011;23991;52.430;10.586;2023-04-03T11:09:59;2.85;;;1.10;;
38182;SDS011;23991;52.430;10.586;2023-04-03T11:12:44;3.40;;;1.20;;
38182;SDS011;23991;52.430;10.586;2023-04-03T11:15:15;4.20;;;1.40;;
38182;SDS011;23991;52.430;10.586;2023-04-03T11:17:46;3.03;;;1.13;;
38182;SDS011;23991;52.430;10.586;2023-04-03T11:33:05;4.65;;;1.23;;
38182;SDS011;23991;52.430;10.586;2023-04-03T11:35:54;4.00;;;1.27;;
38182;SDS011;23991;52.430;10.586;2023-04-03T11:38:31;2.92;;;1.35;;
38182;SDS011;23991;52.430;10.586;2023-04-03T11:41:01;4.10;;;1.27;;
38182;SDS011;23991;52.430;10.586;2023-04-03T11:43:30;2.60;;;1.30;;
38182;SDS011;23991;52.430;10.586;2023-04-03T11:45:58;3.28;;;1.42;;
38182;SDS011;23991;52.430;10.586;2023-04-03T12:13:42;3.25;;;1.30;;
38182;SDS011;23991;52.430;10.586;2023-04-03T12:16:33;3.80;;;1.50;;
38182;SDS011;23991;52.430;10.586;2023-04-03T12:32:06;3.00;;;1.20;;
38182;SDS011;23991;52.430;10.586;2023-04-03T12:41:56;2.35;;;1.30;;
38182;SDS011;23991;52.430;10.586;2023-04-03T12:44:40;5.38;;;1.90;;
38182;SDS011;23991;52.430;10.586;2023-04-03T12:47:26;2.55;;;1.20;;
38182;SDS011;23991;52.430;10.586;2023-04-03T12:49:52;4.28;;;1.35;;
38182;SDS011;23991;52.430;10.586;2023-04-03T12:52:30;2.08;;;1.23;;
38182;SDS011;23991;52.430;10.586;2023-04-03T12:55:01;4.65;;;1.42;;
38182;SDS011;23991;52.430;10.586;2023-04-03T12:57:29;3.13;;;1.27;;
38182;SDS011;23991;52.430;10.586;2023-04-03T12:59:58;2.20;;;1.00;;
38182;SDS011;23991;52.430;10.586;2023-04-03T13:02:29;4.65;;;1.33;;
38182;SDS011;23991;52.430;10.586;2023-04-03T13:04:59;2.25;;;1.30;;
38182;SDS011;23991;52.430;10.586;2023-04-03T13:07:34;2.08;;;1.27;;
38182;SDS011;23991;52.430;10.586;2023-04-03T13:12:32;3.07;;;1.20;;
38182;SDS011;23991;52.430;10.586;2023-04-03T13:15:00;2.42;;;1.15;;
38182;SDS011;23991;52.430;10.586;2023-04-03T13:17:38;3.20;;;1.40;;
38182;SDS011;23991;52.430;10.586;2023-04-03T13:20:13;3.97;;;1.20;;
38182;SDS011;23991;52.430;10.586;2023-04-03T15:49:52;3.90;;;1.63;;
38182;SDS011;23991;52.430;10.586;2023-04-03T15:52:18;4.85;;;1.27;;
38182;SDS011;23991;52.430;10.586;2023-04-03T15:54:44;3.53;;;1.35;;
38182;SDS011;23991;52.430;10.586;2023-04-03T15:57:10;3.13;;;1.48;;
38182;SDS011;23991;52.430;10.586;2023-04-03T15:59:35;3.20;;;1.48;;
38182;SDS011;23991;52.430;10.586;2023-04-03T16:02:01;2.38;;;1.27;;
38182;SDS011;23991;52.430;10.586;2023-04-03T16:06:57;3.17;;;1.30;;
38182;SDS011;23991;52.430;10.586;2023-04-03T16:09:27;3.00;;;1.33;;
38182;SDS011;23991;52.430;10.586;2023-04-03T16:11:54;3.25;;;1.35;;
38182;SDS011;23991;52.430;10.586;2023-04-03T16:14:19;2.95;;;1.40;;
38182;SDS011;23991;52.430;10.586;2023-04-03T16:16:45;3.30;;;1.70;;
38182;SDS011;23991;52.430;10.586;2023-04-03T16:19:13;2.70;;;1.30;;
38182;SDS011;23991;52.430;10.586;2023-04-03T16:21:41;4.65;;;1.63;;
38182;SDS011;23991;52.430;10.586;2023-04-03T16:24:07;4.07;;;1.73;;
38182;SDS011;23991;52.430;10.586;2023-04-03T16:26:33;4.68;;;1.35;;
38182;SDS011;23991;52.430;10.586;2023-04-03T16:28:58;3.65;;;1.40;;
38182;SDS011;23991;52.430;10.586;2023-04-03T16:31:24;3.72;;;1.33;;
38182;SDS011;23991;52.430;10.586;2023-04-03T16:44:10;4.88;;;1.95;;
38182;SDS011;23991;52.430;10.586;2023-04-03T16:46:36;8.93;;;1.63;;
38182;SDS011;23991;52.430;10.586;2023-04-03T16:49:02;2.13;;;1.17;;
38182;SDS011;23991;52.430;10.586;2023-04-03T16:51:28;2.92;;;1.38;;
38182;SDS011;23991;52.430;10.586;2023-04-03T16:53:54;4.22;;;1.20;;
38182;SDS011;23991;52.430;10.586;2023-04-03T16:56:20;3.60;;;1.30;;
38182;SDS011;23991;52.430;10.586;2023-04-03T16:58:47;3.28;;;1.20;;
38182;SDS011;23991;52.430;10.586;2023-04-03T17:01:14;3.20;;;1.27;;
38182;SDS011;23991;52.430;10.586;2023-04-03T17:13:48;3.35;;;1.42;;
38182;SDS011;23991;52.430;10.586;2023-04-03T17:16:14;3.90;;;1.50;;
38182;SDS011;23991;52.430;10.586;2023-04-03T17:18:40;3.78;;;1.38;;
38182;SDS011;23991;52.430;10.586;2023-04-03T17:21:07;3.75;;;1.20;;
38182;SDS011;23991;52.430;10.586;2023-04-03T17:23:33;2.55;;;1.15;;
38182;SDS011;23991;52.430;10.586;2023-04-03T17:26:00;2.80;;;1.30;;
38182;SDS011;23991;52.430;10.586;2023-04-03T17:28:26;5.88;;;2.60;;
38182;SDS011;23991;52.430;10.586;2023-04-03T17:30:59;3.65;;;1.33;;
38182;SDS011;23991;52.430;10.586;2023-04-03T17:33:26;3.67;;;1.20;;
38182;SDS011;23991;52.430;10.586;2023-04-03T17:35:56;4.80;;;1.30;;
38182;SDS011;23991;52.430;10.586;2023-04-03T17:38:23;4.65;;;1.25;;
38182;SDS011;23991;52.430;10.586;2023-04-03T17:40:49;3.58;;;1.48;;
38182;SDS011;23991;52.430;10.586;2023-04-03T17:43:15;4.00;;;1.45;;
38182;SDS011;23991;52.430;10.586;2023-04-03T17:52:24;5.60;;;1.30;;
38182;SDS011;23991;52.430;10.586;2023-04-03T17:54:52;4.68;;;1.75;;
38182;SDS011;23991;52.430;10.586;2023-04-03T17:57:18;6.28;;;1.48;;
38182;SDS011;23991;52.430;10.586;2023-04-03T17:59:44;4.50;;;2.00;;
38182;SDS011;23991;52.430;10.586;2023-04-03T18:02:19;3.75;;;1.30;;
38182;SDS011;23991;52.430;10.586;2023-04-03T18:04:45;6.57;;;1.60;;
38182;SDS011;23991;52.430;10.586;2023-04-03T18:07:10;5.18;;;1.40;;
38182;SDS011;23991;52.430;10.586;2023-04-03T18:09:36;6.90;;;1.75;;
38182;SDS011;23991;52.430;10.586;2023-04-03T18:12:04;3.65;;;1.38;;
38182;SDS011;23991;52.430;10.586;2023-04-03T18:14:32;5.50;;;2.03;;
38182;SDS011;23991;52.430;10.586;2023-04-03T18:17:05;6.53;;;3.15;;
38182;SDS011;23991;52.430;10.586;2023-04-03T18:19:31;6.43;;;2.35;;
38182;SDS011;23991;52.430;10.586;2023-04-03T18:21:59;6.25;;;2.75;;
38182;SDS011;23991;52.430;10.586;2023-04-03T18:24:27;4.68;;;2.22;;
38182;SDS011;23991;52.430;10.586;2023-04-03T18:33:40;4.80;;;1.77;;
38182;SDS011;23991;52.430;10.586;2023-04-03T18:36:07;3.88;;;1.30;;
38182;SDS011;23991;52.430;10.586;2023-04-03T18:38:32;3.97;;;1.50;;
38182;SDS011;23991;52.430;10.586;2023-04-03T18:40:58;5.75;;;1.70;;
38182;SDS011;23991;52.430;10.586;2023-04-03T18:43:26;4.03;;;1.60;;
38182;SDS011;23991;52.430;10.586;2023-04-03T18:45:52;7.65;;;1.52;;
38182;SDS011;23991;52.430;10.586;2023-04-03T18:48:18;4.43;;;1.35;;
38182;SDS011;23991;52.430;10.586;2023-04-03T18:50:45;5.55;;;1.23;;
38182;SDS011;23991;52.430;10.586;2023-04-03T19:03:18;2.75;;;1.33;;
38182;SDS011;23991;52.430;10.586;2023-04-03T19:05:44;5.32;;;2.10;;
38182;SDS011;23991;52.430;10.586;2023-04-03T19:08:10;3.30;;;1.60;;
38182;SDS011;23991;52.430;10.586;2023-04-03T19:10:36;5.93;;;1.52;;
38182;SDS011;23991;52.430;10.586;2023-04-03T19:13:02;3.55;;;1.80;;
38182;SDS011;23991;52.430;10.586;2023-04-03T19:15:28;3.85;;;1.70;;
38182;SDS011;23991;52.430;10.586;2023-04-03T19:17:53;3.70;;;1.50;;
38182;SDS011;23991;52.430;10.586;2023-04-03T19:20:19;8.50;;;2.28;;
38182;SDS011;23991;52.430;10.586;2023-04-03T19:22:45;3.42;;;1.58;;
38182;SDS011;23991;52.430;10.586;2023-04-03T19:32:34;5.90;;;1.52;;
38182;SDS011;23991;52.430;10.586;2023-04-03T19:34:59;3.65;;;1.40;;
38182;SDS011;23991;52.430;10.586;2023-04-03T19:37:26;4.22;;;2.10;;
38182;SDS011;23991;52.430;10.586;2023-04-03T19:39:52;5.75;;;1.75;;
38182;SDS011;23991;52.430;10.586;2023-04-03T19:42:21;3.92;;;1.42;;
38182;SDS011;23991;52.430;10.586;2023-04-03T19:44:47;4.93;;;1.35;;
38182;SDS011;23991;52.430;10.586;2023-04-03T19:47:13;8.45;;;1.60;;
38182;SDS011;23991;52.430;10.586;2023-04-03T19:49:40;3.60;;;1.58;;
38182;SDS011;23991;52.430;10.586;2023-04-03T19:52:06;4.32;;;1.40;;
38182;SDS011;23991;52.430;10.586;2023-04-03T20:04:16;11.13;;;4.70;;
38182;SDS011;23991;52.430;10.586;2023-04-03T20:06:42;7.85;;;2.58;;
38182;SDS011;23991;52.430;10.586;2023-04-03T20:09:08;5.70;;;2.17;;
38182;SDS011;23991;52.430;10.586;2023-04-03T20:11:34;5.35;;;1.80;;
38182;SDS011;23991;52.430;10.586;2023-04-03T20:14:00;6.65;;;1.75;;
38182;SDS011;23991;52.430;10.586;2023-04-03T20:16:26;5.85;;;2.17;;
38182;SDS011;23991;52.430;10.586;2023-04-03T20:18:52;3.53;;;1.50;;
38182;SDS011;23991;52.430;10.586;2023-04-03T20:21:25;4.93;;;1.80;;
38182;SDS011;23991;52.430;10.586;2023-04-03T20:23:53;4.85;;;2.22;;
38182;SDS011;23991;52.430;10.586;2023-04-03T20:26:23;7.63;;;1.65;;
38182;SDS011;23991;52.430;10.586;2023-04-03T20:28:51;3.53;;;1.50;;
38182;SDS011;23991;52.430;10.586;2023-04-03T20:31:20;2.15;;;1.33;;
38182;SDS011;23991;52.430;10.586;2023-04-03T20:33:46;3.63;;;1.80;;
38182;SDS011;23991;52.430;10.586;2023-04-03T20:42:56;4.50;;;2.00;;
38182;SDS011;23991;52.430;10.586;2023-04-03T20:45:22;3.97;;;1.70;;